createdAt,value
2018-11-11T00:01:46.518Z,5.27
2018-11-11T00:06:43.891Z,5.80
2018-11-11T00:11:41.260Z,5.37
2018-11-11T00:16:39.886Z,5.10
2018-11-11T00:21:37.293Z,4.90
2018-11-11T00:26:34.719Z,5.53
2018-11-11T00:31:32.170Z,5.70
2018-11-11T00:36:29.551Z,5.60
2018-11-11T00:41:26.994Z,4.67
2018-11-11T00:46:28.156Z,4.83
2018-11-11T00:51:25.560Z,4.87
2018-11-11T00:56:22.950Z,5.07
2018-11-11T01:01:20.330Z,4.23
2018-11-11T01:06:17.723Z,4.17
2018-11-11T01:11:15.212Z,5.27
2018-11-11T01:16:20.386Z,3.93
2018-11-11T01:21:17.791Z,3.60
2018-11-11T01:26:16.386Z,3.47
2018-11-11T01:31:13.852Z,3.30
2018-11-11T01:36:11.226Z,2.97
2018-11-11T01:41:08.621Z,3.53
2018-11-11T01:46:11.254Z,3.40
2018-11-11T01:51:08.737Z,3.10
2018-11-11T01:56:06.462Z,3.03
2018-11-11T02:01:03.967Z,3.30
2018-11-11T02:06:01.344Z,3.90
2018-11-11T02:10:58.711Z,3.37
2018-11-11T02:16:13.774Z,3.63
2018-11-11T02:21:11.294Z,3.80
2018-11-11T02:26:08.640Z,4.00
2018-11-11T02:31:06.311Z,3.87
2018-11-11T02:36:03.669Z,2.93
2018-11-11T02:41:01.088Z,3.87
2018-11-11T02:46:08.366Z,3.47
2018-11-11T02:51:05.919Z,3.40
2018-11-11T02:56:03.322Z,3.43
2018-11-11T03:01:00.691Z,2.77
2018-11-11T03:05:58.268Z,3.43
2018-11-11T03:10:55.647Z,5.83
2018-11-11T03:16:00.667Z,3.33
2018-11-11T03:20:58.207Z,3.20
2018-11-11T03:25:55.590Z,3.30
2018-11-11T03:30:52.963Z,2.83
2018-11-11T03:35:50.398Z,2.90
2018-11-11T03:40:47.803Z,2.13
2018-11-11T03:45:47.445Z,2.00
2018-11-11T03:50:44.851Z,2.00
2018-11-11T03:55:42.247Z,1.83
2018-11-11T04:00:39.628Z,1.70
2018-11-11T04:05:37.078Z,1.60
2018-11-11T04:10:34.461Z,1.70
2018-11-11T04:15:31.923Z,1.50
2018-11-11T04:20:29.315Z,1.70
2018-11-11T04:25:26.702Z,0.90
2018-11-11T04:30:24.903Z,0.90
2018-11-11T04:35:22.274Z,1.00
2018-11-11T04:40:19.701Z,1.00
2018-11-11T04:45:17.162Z,1.17
2018-11-11T04:50:15.699Z,0.97
2018-11-11T04:55:13.102Z,0.97
2018-11-11T05:00:11.775Z,1.30
2018-11-11T05:05:10.168Z,1.10
2018-11-11T05:10:07.759Z,1.47
2018-11-11T05:15:06.347Z,1.10
2018-11-11T05:20:04.068Z,1.20
2018-11-11T05:25:01.474Z,0.80
2018-11-11T05:29:58.910Z,1.00
2018-11-11T05:34:56.293Z,1.33
2018-11-11T05:39:53.673Z,0.93
2018-11-11T05:44:51.040Z,1.33
2018-11-11T05:49:48.408Z,0.93
2018-11-11T05:54:45.777Z,0.67
2018-11-11T05:59:43.206Z,1.03
2018-11-11T06:04:40.587Z,0.93
2018-11-11T06:09:37.966Z,1.13
2018-11-11T06:14:35.362Z,1.00
2018-11-11T06:19:32.798Z,1.47
2018-11-11T06:24:30.444Z,1.57
2018-11-11T06:29:27.846Z,1.00
2018-11-11T06:34:25.362Z,1.53
2018-11-11T06:39:23.125Z,1.30
2018-11-11T06:44:20.560Z,1.70
2018-11-11T06:49:19.108Z,1.00
2018-11-11T06:54:16.515Z,1.40
2018-11-11T06:59:13.935Z,1.87
2018-11-11T07:04:11.400Z,1.70
2018-11-11T07:09:09.874Z,1.60
2018-11-11T07:14:07.385Z,1.40
2018-11-11T07:19:05.171Z,1.47
2018-11-11T07:24:02.667Z,1.40
2018-11-11T07:29:00.038Z,1.20
2018-11-11T07:33:57.468Z,1.33
2018-11-11T07:38:54.906Z,1.27
2018-11-11T07:43:52.414Z,1.60
2018-11-11T07:48:50.272Z,1.53
2018-11-11T07:53:47.686Z,1.40
2018-11-11T07:58:45.104Z,1.40
2018-11-11T08:03:42.504Z,2.30
2018-11-11T08:08:39.941Z,1.40
2018-11-11T08:13:37.354Z,1.70
2018-11-11T08:18:34.771Z,1.10
2018-11-11T08:23:32.238Z,1.50
2018-11-11T08:28:29.876Z,1.37
2018-11-11T08:33:27.323Z,1.50
2018-11-11T08:38:24.772Z,1.27
2018-11-11T08:43:22.251Z,1.40
2018-11-11T08:48:19.799Z,1.50
2018-11-11T08:53:17.695Z,1.37
2018-11-11T08:58:15.144Z,1.30
2018-11-11T09:03:13.467Z,1.93
2018-11-11T09:08:10.972Z,1.27
2018-11-11T09:13:08.407Z,1.13
2018-11-11T09:18:05.919Z,1.30
2018-11-11T09:23:03.335Z,1.20
2018-11-11T09:28:02.243Z,1.07
2018-11-11T09:32:59.846Z,0.80
2018-11-11T09:37:57.382Z,1.13
2018-11-11T09:42:55.578Z,0.73
2018-11-11T09:47:54.271Z,0.83
2018-11-11T09:52:52.003Z,0.87
2018-11-11T09:57:49.367Z,0.50
2018-11-11T10:03:08.516Z,0.80
2018-11-11T10:08:10.392Z,0.93
2018-11-11T10:13:17.340Z,0.80
2018-11-11T10:18:23.481Z,0.70
2018-11-11T10:23:30.185Z,0.90
2018-11-11T10:28:34.694Z,1.10
2018-11-11T10:33:37.939Z,0.80
2018-11-11T10:39:39.900Z,0.90
2018-11-11T10:44:48.244Z,0.80
2018-11-11T10:49:57.011Z,0.70
2018-11-11T10:54:54.850Z,0.90
2018-11-11T10:59:52.403Z,0.60
2018-11-11T11:04:55.389Z,0.80
2018-11-11T11:09:52.795Z,0.70
2018-11-11T11:14:50.231Z,0.80
2018-11-11T11:19:47.708Z,0.90
2018-11-11T11:24:45.149Z,0.90
2018-11-11T11:29:42.600Z,0.73
2018-11-11T11:34:39.976Z,0.73
2018-11-11T11:39:37.537Z,0.70
2018-11-11T11:44:35.018Z,0.93
2018-11-11T11:49:32.526Z,1.10
2018-11-11T11:54:29.971Z,0.70
2018-11-11T11:59:27.447Z,1.37
2018-11-11T12:04:25.052Z,1.00
2018-11-11T12:09:22.532Z,0.93
2018-11-11T12:14:19.987Z,1.07
2018-11-11T12:19:17.477Z,1.00
2018-11-11T12:24:14.933Z,0.90
2018-11-11T12:29:12.420Z,0.90
2018-11-11T12:34:09.866Z,0.80
2018-11-11T12:39:11.913Z,0.90
2018-11-11T12:44:23.866Z,0.70
2018-11-11T12:49:23.588Z,0.83
2018-11-11T12:54:27.197Z,1.30
2018-11-11T12:59:28.854Z,1.10
2018-11-11T13:04:29.792Z,0.70
2018-11-11T13:09:29.083Z,1.20
2018-11-11T13:14:27.906Z,1.10
2018-11-11T13:19:30.703Z,0.80
2018-11-11T13:24:30.759Z,1.97
2018-11-11T13:29:28.247Z,1.53
2018-11-11T13:34:25.711Z,0.73
2018-11-11T13:39:23.127Z,0.90
2018-11-11T13:44:20.732Z,1.00
2018-11-11T13:49:18.110Z,1.13
2018-11-11T13:54:15.534Z,1.10
2018-11-11T13:59:13.026Z,1.70
2018-11-11T14:04:10.467Z,0.73
2018-11-11T14:09:12.640Z,0.93
2018-11-11T14:14:10.055Z,1.13
2018-11-11T14:19:07.841Z,1.00
2018-11-11T14:24:05.039Z,1.67
2018-11-11T14:29:02.476Z,1.07
2018-11-11T14:34:00.809Z,1.20
2018-11-11T14:38:59.262Z,2.50
2018-11-11T14:43:57.673Z,1.00
2018-11-11T14:48:57.190Z,1.20
2018-11-11T14:53:56.564Z,1.00
2018-11-11T14:58:56.209Z,1.43
2018-11-11T15:03:53.527Z,2.70
2018-11-11T15:08:50.958Z,1.63
2018-11-11T15:13:48.421Z,1.47
2018-11-11T15:18:45.861Z,0.80
2018-11-11T15:23:43.370Z,1.10
2018-11-11T15:28:40.775Z,1.60
2018-11-11T15:33:38.252Z,0.97
2018-11-11T15:38:36.388Z,1.40
2018-11-11T15:43:34.384Z,1.27
2018-11-11T15:48:31.875Z,1.20
2018-11-11T15:53:29.290Z,1.80
2018-11-11T15:58:26.703Z,1.80
2018-11-11T16:03:24.096Z,2.37
2018-11-11T16:08:21.574Z,1.90
2018-11-11T16:13:18.954Z,2.30
2018-11-11T16:18:16.430Z,1.83
2018-11-11T16:23:13.900Z,2.20
2018-11-11T16:28:11.875Z,2.50
2018-11-11T16:33:09.680Z,2.03
2018-11-11T16:38:07.242Z,1.70
2018-11-11T16:43:04.862Z,2.10
2018-11-11T16:48:02.340Z,1.20
2018-11-11T16:53:01.382Z,1.30
2018-11-11T16:57:58.752Z,1.80
2018-11-11T17:02:57.118Z,1.70
2018-11-11T17:07:54.699Z,1.67
2018-11-11T17:12:53.199Z,1.23
2018-11-11T17:17:50.631Z,1.83
2018-11-11T17:22:49.112Z,1.97
2018-11-11T17:27:46.742Z,2.13
2018-11-11T17:32:44.946Z,1.50
2018-11-11T17:37:42.555Z,2.03
2018-11-11T17:42:41.098Z,2.73
2018-11-11T17:47:39.074Z,1.57
2018-11-11T17:52:36.619Z,1.97
2018-11-11T17:57:34.840Z,1.63
2018-11-11T18:02:35.750Z,1.80
2018-11-11T18:07:33.322Z,1.53
2018-11-11T18:12:33.773Z,1.90
2018-11-11T18:17:31.322Z,1.30
2018-11-11T18:22:28.814Z,1.80
2018-11-11T18:27:26.330Z,1.87
2018-11-11T18:32:23.590Z,1.60
2018-11-11T18:37:21.009Z,1.53
2018-11-11T18:42:18.425Z,1.10
2018-11-11T18:47:17.028Z,1.20
2018-11-11T18:52:14.439Z,1.60
2018-11-11T18:57:11.819Z,1.30
2018-11-11T19:02:09.176Z,0.90
2018-11-11T19:07:06.577Z,1.03
2018-11-11T19:12:04.360Z,1.20
2018-11-11T19:17:05.964Z,1.70
2018-11-11T19:22:03.408Z,1.67
2018-11-11T19:27:00.859Z,1.47
2018-11-11T19:31:58.309Z,1.60
2018-11-11T19:36:55.695Z,1.63
2018-11-11T19:41:53.211Z,1.43
2018-11-11T19:46:51.827Z,1.60
2018-11-11T19:51:49.220Z,1.80
2018-11-11T19:56:46.627Z,1.27
2018-11-11T20:01:44.063Z,1.40
2018-11-11T20:06:41.447Z,1.83
2018-11-11T20:11:38.833Z,1.30
2018-11-11T20:16:37.758Z,2.10
2018-11-11T20:21:35.181Z,1.70
2018-11-11T20:26:32.575Z,1.83
2018-11-11T20:31:29.994Z,1.60
2018-11-11T20:36:27.476Z,2.57
2018-11-11T20:41:24.884Z,1.53
2018-11-11T20:46:25.534Z,1.70
2018-11-11T20:51:22.938Z,1.70
2018-11-11T20:56:20.362Z,2.27
2018-11-11T21:01:17.735Z,2.07
2018-11-11T21:06:15.175Z,1.97
2018-11-11T21:11:12.637Z,1.60
2018-11-11T21:16:17.437Z,2.03
2018-11-11T21:21:15.138Z,1.50
2018-11-11T21:26:12.530Z,1.53
2018-11-11T21:31:09.970Z,1.20
2018-11-11T21:36:07.354Z,1.10
2018-11-11T21:41:05.290Z,0.90
2018-11-11T21:46:09.498Z,1.00
2018-11-11T21:51:06.939Z,1.20
2018-11-11T21:56:04.603Z,0.90
2018-11-11T22:01:02.018Z,0.80
2018-11-11T22:05:59.412Z,1.20
2018-11-11T22:10:56.773Z,0.83
2018-11-11T22:16:09.795Z,1.10
2018-11-11T22:21:10.351Z,1.10
2018-11-11T22:26:07.731Z,1.27
2018-11-11T22:31:05.126Z,0.90
2018-11-11T22:36:02.503Z,1.00
2018-11-11T22:40:59.920Z,0.67
2018-11-11T22:46:05.810Z,1.10
2018-11-11T22:51:03.239Z,1.10
2018-11-11T22:56:00.623Z,1.03
2018-11-11T23:01:03.730Z,1.10
2018-11-11T23:06:01.083Z,1.23
2018-11-11T23:10:58.458Z,1.30
2018-11-11T23:16:03.855Z,1.30
2018-11-11T23:21:01.309Z,0.83
2018-11-11T23:25:58.686Z,1.20
2018-11-11T23:30:56.077Z,1.10
2018-11-11T23:35:53.902Z,1.10
2018-11-11T23:40:52.694Z,1.00
2018-11-11T23:45:51.624Z,1.10
2018-11-11T23:50:50.335Z,1.10
2018-11-11T23:55:51.399Z,1.30
